Flight Track Log - Related Links

Times and Time Zones

All times are in EDT time to prevent confusion due to time zone crossing. See the N551US flight status page for this flight to view local times or setup timezone preferences in your user account.

Time Position Orientation Groundspeed Altitude Reporting Facility
EDT Latitude Longitude Course Direction KTS MPH feet Rate Location/Type
Sun 07:02:57 PM 35.2500 -90.0333 90° East 161 185 1,700  Level KMEM
Sun 07:03:57 PM 35.2500 -89.9833 90° East 181 208 1,700  Level KMEM
Sun 07:04:51 PM 35.2833 -89.9667 22° Northeast 179 206 1,700 310 Level KMEM
Sun 07:05:53 PM 35.3333 -89.9667 360° North 167 192 2,300 683 Climbing KMEM
Sun 07:06:54 PM 35.3667 -89.9500 22° Northeast 155 178 3,100 763 Climbing KMEM
Sun 07:07:51 PM 35.3500 -89.9000 112° Southeast 155 178 3,800 769 Climbing KMEM
Sun 07:08:51 PM 35.3333 -89.8500 112° Southeast 156 180 4,600 769 Climbing KMEM
Sun 07:09:48 PM 35.3333 -89.8000 90° East 157 181 5,300 718 Climbing KMEM
Sun 07:10:48 PM 35.3167 -89.7500 112° Southeast 154 177 6,000 700 Climbing KMEM
Sun 07:11:48 PM 35.3000 -89.7000 112° Southeast 151 174 6,700 500 Climbing KMEM
Sun 07:12:48 PM 35.2833 -89.6500 112° Southeast 157 181 7,000 143 Climbing KMEM
Sun 07:13:54 PM 35.2667 -89.5833 107° East 190 219 7,000 259 Level KMEM
Sun 07:14:44 PM 35.2531 -89.5486 116° Southeast 173 199 7,500 655 Climbing Memphis Center
Sun 07:15:44 PM 35.2339 -89.4953 114° Southeast 184 212 8,200 650 Climbing Memphis Center
Sun 07:16:44 PM 35.2167 -89.4422 112° Southeast 179 206 8,800 400 Climbing Memphis Center
Sun 07:17:44 PM 35.1975 -89.3839 112° Southeast 174 200 9,000 100 Climbing Memphis Center
Sun 07:18:44 PM 35.1719 -89.3206 116° Southeast 184 212 9,000  Level Memphis Center
Sun 07:19:44 PM 35.1483 -89.2575 115° Southeast 198 228 9,000  Level Memphis Center
Sun 07:20:44 PM 35.1269 -89.1892 111° Southeast 209 241 9,000  Level Memphis Center
Sun 07:21:44 PM 35.1033 -89.1236 114° Southeast 214 246 9,000  Level Memphis Center
Sun 07:22:44 PM 35.0797 -89.0606 115° Southeast 214 246 9,000  Level Memphis Center
Sun 07:23:44 PM 35.0583 -89.0000 113° Southeast 214 246 9,000  Level Memphis Center
Sun 07:24:44 PM 35.0344 -88.9317 113° Southeast 214 246 9,000  Level Memphis Center
Sun 07:25:44 PM 35.0131 -88.8689 113° Southeast 214 246 9,000  Level Memphis Center
Sun 07:26:44 PM 34.9914 -88.8033 112° Southeast 214 246 9,000  Level Memphis Center
Sun 07:27:44 PM 34.9656 -88.7428 117° Southeast 209 241 9,000  Level Memphis Center
Sun 07:28:44 PM 34.9417 -88.6775 114° Southeast 209 241 9,000  Level Memphis Center
Sun 07:29:44 PM 34.9200 -88.6094 111° Southeast 204 235 9,000  Level Memphis Center
Sun 07:30:44 PM 34.8939 -88.5442 116° Southeast 204 235 9,000  Level Memphis Center
Sun 07:31:44 PM 34.8742 -88.4864 113° Southeast 197 227 9,000  Level Memphis Center
Sun 07:32:44 PM 34.8503 -88.4264 116° Southeast 192 221 9,000  Level Memphis Center
Sun 07:33:44 PM 34.8286 -88.3611 112° Southeast 198 228 9,000  Level Memphis Center
Sun 07:34:44 PM 34.8067 -88.2983 113° Southeast 198 228 9,000  Level Memphis Center
Sun 07:35:44 PM 34.7806 -88.2383 118° Southeast 198 228 9,000  Level Memphis Center
Sun 07:36:44 PM 34.7606 -88.1756 111° Southeast 198 228 9,000  Level Memphis Center
Sun 07:37:44 PM 34.7367 -88.1131 115° Southeast 198 228 9,000  Level Memphis Center
Sun 07:38:44 PM 34.7147 -88.0531 114° Southeast 198 228 9,000  Level Memphis Center
Sun 07:39:44 PM 34.6906 -87.9881 114° Southeast 198 228 9,000  Level Memphis Center
Sun 07:40:44 PM 34.6683 -87.9281 114° Southeast 198 228 9,000  Level Memphis Center
Sun 07:41:44 PM 34.6464 -87.8631 112° Southeast 198 228 9,000  Level Memphis Center
Sun 07:42:44 PM 34.6242 -87.8031 114° Southeast 198 228 9,000  Level Memphis Center
Sun 07:43:44 PM 34.6000 -87.7406 115° Southeast 198 228 9,000  Level Memphis Center
Sun 07:44:44 PM 34.5778 -87.6783 113° Southeast 198 228 9,000  Level Memphis Center
Sun 07:45:44 PM 34.5578 -87.6233 114° Southeast 198 228 9,000  Level Memphis Center
Sun 07:46:44 PM 34.5333 -87.5611 115° Southeast 198 228 9,000  Level Memphis Center
Sun 07:47:44 PM 34.5111 -87.4989 113° Southeast 198 228 9,000  Level Memphis Center
Sun 07:48:44 PM 34.4867 -87.4342 115° Southeast 198 228 9,000  Level Memphis Center
Sun 07:49:44 PM 34.4644 -87.3719 113° Southeast 198 228 9,000  Level Memphis Center
Sun 07:50:44 PM 34.4400 -87.3125 116° Southeast 198 228 9,000  Level Memphis Center
Sun 07:51:44 PM 34.4175 -87.2478 113° Southeast 198 228 9,000  Level Memphis Center
Sun 07:52:44 PM 34.3950 -87.1881 115° Southeast 198 228 9,000 -100 Level Memphis Center
Sun 07:53:44 PM 34.3706 -87.1261 116° Southeast 198 228 8,800 -250 Descending Memphis Center
Sun 07:54:44 PM 34.3503 -87.0667 112° Southeast 198 228 8,500 -300 Descending Memphis Center
Sun 07:55:44 PM 34.3256 -87.0072 117° Southeast 198 228 8,200 -300 Descending Memphis Center
Sun 07:56:44 PM 34.3011 -86.9453 116° Southeast 198 228 7,900 -300 Descending Memphis Center
Sun 07:57:44 PM 34.2806 -86.8858 113° Southeast 198 228 7,600 -400 Descending Memphis Center
Sun 07:58:44 PM 34.2558 -86.8239 116° Southeast 198 228 7,100 -550 Descending Memphis Center
Sun 07:59:44 PM 34.2356 -86.7644 112° Southeast 198 228 6,500 -600 Descending Memphis Center
Sun 08:00:44 PM 34.2128 -86.7078 116° Southeast 198 228 5,900 -600 Descending Memphis Center
Sun 08:01:44 PM 34.1903 -86.6483 115° Southeast 198 228 5,300 -500 Descending Memphis Center
Sun 08:02:44 PM 34.1678 -86.5917 116° Southeast 198 228 4,900 -550 Descending Memphis Center
Sun 08:03:44 PM 34.1431 -86.5325 117° Southeast 198 228 4,200 -618 Descending Memphis Center
Sun 08:05:00 PM 34.1128 -86.4575 116° Southeast 191 220 3,500 -529 Descending Atlanta Center
Sun 08:06:00 PM 34.0911 -86.3992 114° Southeast 190 219 3,000 -500 Descending Atlanta Center

Login

Don't have an account? Register now (free) for customized features, flight alerts, and more!